sensor_id;sensor_type;location;lat;lon;timestamp;P1;durP1;ratioP1;P2;durP2;ratioP2
4274;SDS011;2151;50.988;11.068;2022-07-30T00:01:38;134.03;;;12.00;;
4274;SDS011;2151;50.988;11.068;2022-07-30T00:04:04;130.83;;;11.63;;
4274;SDS011;2151;50.988;11.068;2022-07-30T00:06:31;129.57;;;11.27;;
4274;SDS011;2151;50.988;11.068;2022-07-30T00:08:58;129.07;;;11.03;;
4274;SDS011;2151;50.988;11.068;2022-07-30T00:11:24;132.27;;;12.40;;
4274;SDS011;2151;50.988;11.068;2022-07-30T00:13:53;129.87;;;13.10;;
4274;SDS011;2151;50.988;11.068;2022-07-30T00:16:19;130.37;;;12.33;;
4274;SDS011;2151;50.988;11.068;2022-07-30T00:18:46;130.53;;;12.53;;
4274;SDS011;2151;50.988;11.068;2022-07-30T00:21:12;128.90;;;11.73;;
4274;SDS011;2151;50.988;11.068;2022-07-30T00:24:00;128.37;;;11.27;;
4274;SDS011;2151;50.988;11.068;2022-07-30T00:26:27;129.23;;;11.40;;
4274;SDS011;2151;50.988;11.068;2022-07-30T00:28:54;132.97;;;18.63;;
4274;SDS011;2151;50.988;11.068;2022-07-30T00:31:20;131.87;;;17.90;;
4274;SDS011;2151;50.988;11.068;2022-07-30T00:33:47;130.03;;;13.30;;
4274;SDS011;2151;50.988;11.068;2022-07-30T00:36:13;133.37;;;17.57;;
4274;SDS011;2151;50.988;11.068;2022-07-30T00:38:39;132.27;;;16.73;;
4274;SDS011;2151;50.988;11.068;2022-07-30T00:41:06;129.03;;;11.27;;
4274;SDS011;2151;50.988;11.068;2022-07-30T00:43:32;129.90;;;13.70;;
4274;SDS011;2151;50.988;11.068;2022-07-30T00:45:59;131.97;;;12.53;;
4274;SDS011;2151;50.988;11.068;2022-07-30T00:48:25;129.23;;;12.60;;
4274;SDS011;2151;50.988;11.068;2022-07-30T00:50:52;129.97;;;11.20;;
4274;SDS011;2151;50.988;11.068;2022-07-30T00:53:18;129.50;;;10.77;;
4274;SDS011;2151;50.988;11.068;2022-07-30T00:55:44;128.57;;;9.60;;
4274;SDS011;2151;50.988;11.068;2022-07-30T00:58:11;129.10;;;10.57;;
4274;SDS011;2151;50.988;11.068;2022-07-30T01:00:37;129.67;;;10.13;;
4274;SDS011;2151;50.988;11.068;2022-07-30T01:03:04;127.90;;;9.30;;
4274;SDS011;2151;50.988;11.068;2022-07-30T01:05:31;129.47;;;10.43;;
4274;SDS011;2151;50.988;11.068;2022-07-30T01:07:57;132.67;;;9.63;;
4274;SDS011;2151;50.988;11.068;2022-07-30T01:10:24;131.57;;;10.23;;
4274;SDS011;2151;50.988;11.068;2022-07-30T01:12:50;129.90;;;10.00;;
4274;SDS011;2151;50.988;11.068;2022-07-30T01:15:18;129.40;;;10.60;;
4274;SDS011;2151;50.988;11.068;2022-07-30T01:17:45;129.43;;;10.13;;
4274;SDS011;2151;50.988;11.068;2022-07-30T01:20:22;129.33;;;9.60;;
4274;SDS011;2151;50.988;11.068;2022-07-30T01:22:51;129.70;;;9.60;;
4274;SDS011;2151;50.988;11.068;2022-07-30T01:27:55;132.40;;;10.80;;
4274;SDS011;2151;50.988;11.068;2022-07-30T01:30:24;132.03;;;10.80;;
4274;SDS011;2151;50.988;11.068;2022-07-30T01:32:52;132.77;;;11.87;;
4274;SDS011;2151;50.988;11.068;2022-07-30T01:35:19;133.40;;;11.27;;
4274;SDS011;2151;50.988;11.068;2022-07-30T01:37:46;138.87;;;11.53;;
4274;SDS011;2151;50.988;11.068;2022-07-30T01:40:14;135.10;;;10.73;;
4274;SDS011;2151;50.988;11.068;2022-07-30T01:42:41;133.77;;;10.77;;
4274;SDS011;2151;50.988;11.068;2022-07-30T01:45:07;131.80;;;10.60;;
4274;SDS011;2151;50.988;11.068;2022-07-30T01:47:36;131.07;;;10.20;;
4274;SDS011;2151;50.988;11.068;2022-07-30T01:50:04;132.47;;;10.83;;
4274;SDS011;2151;50.988;11.068;2022-07-30T01:52:36;132.07;;;11.07;;
4274;SDS011;2151;50.988;11.068;2022-07-30T01:55:02;131.83;;;10.57;;
4274;SDS011;2151;50.988;11.068;2022-07-30T01:57:39;134.37;;;10.60;;
4274;SDS011;2151;50.988;11.068;2022-07-30T02:00:06;132.53;;;11.70;;
4274;SDS011;2151;50.988;11.068;2022-07-30T02:02:34;132.47;;;11.33;;
4274;SDS011;2151;50.988;11.068;2022-07-30T02:05:01;132.90;;;11.37;;
4274;SDS011;2151;50.988;11.068;2022-07-30T02:10:14;134.00;;;12.27;;
4274;SDS011;2151;50.988;11.068;2022-07-30T02:12:42;132.33;;;10.73;;
4274;SDS011;2151;50.988;11.068;2022-07-30T02:18:05;131.70;;;11.27;;
4274;SDS011;2151;50.988;11.068;2022-07-30T02:20:33;132.40;;;10.80;;
4274;SDS011;2151;50.988;11.068;2022-07-30T02:23:04;133.47;;;11.17;;
4274;SDS011;2151;50.988;11.068;2022-07-30T02:25:32;132.57;;;10.43;;
4274;SDS011;2151;50.988;11.068;2022-07-30T02:28:01;134.60;;;11.13;;
4274;SDS011;2151;50.988;11.068;2022-07-30T02:30:29;131.50;;;10.60;;
4274;SDS011;2151;50.988;11.068;2022-07-30T02:33:06;133.80;;;11.27;;
4274;SDS011;2151;50.988;11.068;2022-07-30T02:35:33;137.50;;;11.20;;
4274;SDS011;2151;50.988;11.068;2022-07-30T02:38:01;132.30;;;10.73;;
4274;SDS011;2151;50.988;11.068;2022-07-30T02:40:27;137.37;;;11.73;;
4274;SDS011;2151;50.988;11.068;2022-07-30T02:42:54;132.00;;;11.30;;
4274;SDS011;2151;50.988;11.068;2022-07-30T02:45:21;134.47;;;10.83;;
4274;SDS011;2151;50.988;11.068;2022-07-30T02:47:59;134.50;;;11.43;;
4274;SDS011;2151;50.988;11.068;2022-07-30T02:50:27;134.13;;;11.80;;
4274;SDS011;2151;50.988;11.068;2022-07-30T02:52:54;139.10;;;12.50;;
4274;SDS011;2151;50.988;11.068;2022-07-30T02:55:21;131.77;;;10.70;;
4274;SDS011;2151;50.988;11.068;2022-07-30T02:57:49;132.00;;;10.93;;
4274;SDS011;2151;50.988;11.068;2022-07-30T03:00:16;134.20;;;10.80;;
4274;SDS011;2151;50.988;11.068;2022-07-30T03:02:43;131.97;;;11.10;;
4274;SDS011;2151;50.988;11.068;2022-07-30T03:05:12;133.60;;;11.93;;
4274;SDS011;2151;50.988;11.068;2022-07-30T03:07:39;134.07;;;12.70;;
4274;SDS011;2151;50.988;11.068;2022-07-30T03:10:06;135.67;;;12.17;;
4274;SDS011;2151;50.988;11.068;2022-07-30T03:12:33;132.87;;;12.57;;
4274;SDS011;2151;50.988;11.068;2022-07-30T03:15:01;133.37;;;12.40;;
4274;SDS011;2151;50.988;11.068;2022-07-30T03:17:28;134.00;;;12.63;;
4274;SDS011;2151;50.988;11.068;2022-07-30T03:19:56;134.40;;;12.40;;
4274;SDS011;2151;50.988;11.068;2022-07-30T03:22:24;134.40;;;11.93;;
4274;SDS011;2151;50.988;11.068;2022-07-30T03:24:57;133.17;;;12.70;;
4274;SDS011;2151;50.988;11.068;2022-07-30T03:27:24;133.07;;;12.33;;
4274;SDS011;2151;50.988;11.068;2022-07-30T03:29:51;134.47;;;12.57;;
4274;SDS011;2151;50.988;11.068;2022-07-30T03:32:18;133.07;;;12.27;;
4274;SDS011;2151;50.988;11.068;2022-07-30T03:34:51;133.10;;;11.60;;
4274;SDS011;2151;50.988;11.068;2022-07-30T03:37:21;132.30;;;11.47;;
4274;SDS011;2151;50.988;11.068;2022-07-30T03:39:47;132.20;;;11.47;;
4274;SDS011;2151;50.988;11.068;2022-07-30T03:42:14;133.57;;;10.87;;
4274;SDS011;2151;50.988;11.068;2022-07-30T03:44:41;135.80;;;11.00;;
4274;SDS011;2151;50.988;11.068;2022-07-30T03:47:11;131.67;;;10.67;;
4274;SDS011;2151;50.988;11.068;2022-07-30T03:49:37;134.40;;;10.40;;
4274;SDS011;2151;50.988;11.068;2022-07-30T03:52:04;133.63;;;11.30;;
4274;SDS011;2151;50.988;11.068;2022-07-30T03:54:31;132.33;;;11.27;;
4274;SDS011;2151;50.988;11.068;2022-07-30T03:57:01;132.67;;;11.17;;
4274;SDS011;2151;50.988;11.068;2022-07-30T03:59:29;138.27;;;12.47;;
4274;SDS011;2151;50.988;11.068;2022-07-30T04:01:59;134.10;;;12.70;;
4274;SDS011;2151;50.988;11.068;2022-07-30T04:04:32;134.67;;;13.17;;
4274;SDS011;2151;50.988;11.068;2022-07-30T04:06:59;140.77;;;14.37;;
4274;SDS011;2151;50.988;11.068;2022-07-30T04:09:26;146.03;;;14.90;;
4274;SDS011;2151;50.988;11.068;2022-07-30T04:11:52;141.10;;;18.30;;
4274;SDS011;2151;50.988;11.068;2022-07-30T04:14:18;139.70;;;18.20;;
4274;SDS011;2151;50.988;11.068;2022-07-30T04:16:46;144.10;;;22.53;;
4274;SDS011;2151;50.988;11.068;2022-07-30T04:19:15;142.80;;;19.30;;
4274;SDS011;2151;50.988;11.068;2022-07-30T04:21:43;143.40;;;18.00;;
4274;SDS011;2151;50.988;11.068;2022-07-30T04:24:09;142.07;;;15.50;;
4274;SDS011;2151;50.988;11.068;2022-07-30T04:26:36;141.77;;;15.80;;
4274;SDS011;2151;50.988;11.068;2022-07-30T04:29:08;141.67;;;14.60;;
4274;SDS011;2151;50.988;11.068;2022-07-30T04:31:41;142.00;;;15.20;;
4274;SDS011;2151;50.988;11.068;2022-07-30T04:34:11;142.97;;;15.10;;
4274;SDS011;2151;50.988;11.068;2022-07-30T04:36:37;147.63;;;15.30;;
4274;SDS011;2151;50.988;11.068;2022-07-30T04:39:04;142.77;;;15.80;;
4274;SDS011;2151;50.988;11.068;2022-07-30T04:41:30;144.03;;;15.80;;
4274;SDS011;2151;50.988;11.068;2022-07-30T04:44:14;143.37;;;14.80;;
4274;SDS011;2151;50.988;11.068;2022-07-30T04:46:40;139.40;;;13.70;;
4274;SDS011;2151;50.988;11.068;2022-07-30T04:49:07;141.20;;;14.73;;
4274;SDS011;2151;50.988;11.068;2022-07-30T04:51:34;141.50;;;14.10;;
4274;SDS011;2151;50.988;11.068;2022-07-30T04:54:02;140.73;;;13.77;;
4274;SDS011;2151;50.988;11.068;2022-07-30T04:56:30;141.83;;;14.87;;
4274;SDS011;2151;50.988;11.068;2022-07-30T04:58:58;138.57;;;12.80;;
4274;SDS011;2151;50.988;11.068;2022-07-30T05:01:44;138.17;;;13.80;;
4274;SDS011;2151;50.988;11.068;2022-07-30T05:04:11;138.60;;;15.43;;
4274;SDS011;2151;50.988;11.068;2022-07-30T05:06:38;143.00;;;15.33;;
4274;SDS011;2151;50.988;11.068;2022-07-30T05:09:05;146.43;;;15.00;;
4274;SDS011;2151;50.988;11.068;2022-07-30T05:11:32;139.77;;;17.03;;
4274;SDS011;2151;50.988;11.068;2022-07-30T05:13:58;137.97;;;14.23;;
4274;SDS011;2151;50.988;11.068;2022-07-30T05:16:24;137.57;;;14.20;;
4274;SDS011;2151;50.988;11.068;2022-07-30T05:18:51;136.47;;;14.67;;
4274;SDS011;2151;50.988;11.068;2022-07-30T05:21:18;136.87;;;15.00;;
4274;SDS011;2151;50.988;11.068;2022-07-30T05:23:44;135.93;;;14.77;;
4274;SDS011;2151;50.988;11.068;2022-07-30T05:26:17;137.20;;;14.70;;
4274;SDS011;2151;50.988;11.068;2022-07-30T05:28:44;140.97;;;16.40;;
4274;SDS011;2151;50.988;11.068;2022-07-30T05:31:15;136.80;;;13.50;;
4274;SDS011;2151;50.988;11.068;2022-07-30T05:33:43;137.63;;;14.87;;
4274;SDS011;2151;50.988;11.068;2022-07-30T05:36:09;135.20;;;11.77;;
4274;SDS011;2151;50.988;11.068;2022-07-30T05:38:36;136.20;;;12.03;;
4274;SDS011;2151;50.988;11.068;2022-07-30T05:41:02;134.50;;;11.40;;
4274;SDS011;2151;50.988;11.068;2022-07-30T05:43:28;136.77;;;13.03;;
4274;SDS011;2151;50.988;11.068;2022-07-30T05:45:55;133.17;;;11.97;;
4274;SDS011;2151;50.988;11.068;2022-07-30T05:48:21;133.87;;;12.70;;
4274;SDS011;2151;50.988;11.068;2022-07-30T05:50:48;136.30;;;13.50;;
4274;SDS011;2151;50.988;11.068;2022-07-30T05:53:15;135.63;;;12.67;;
4274;SDS011;2151;50.988;11.068;2022-07-30T05:55:41;133.27;;;12.00;;
4274;SDS011;2151;50.988;11.068;2022-07-30T05:58:07;134.73;;;11.80;;
4274;SDS011;2151;50.988;11.068;2022-07-30T06:00:34;135.87;;;11.60;;
4274;SDS011;2151;50.988;11.068;2022-07-30T06:03:01;132.20;;;10.90;;
4274;SDS011;2151;50.988;11.068;2022-07-30T06:05:28;132.17;;;10.83;;
4274;SDS011;2151;50.988;11.068;2022-07-30T06:07:54;132.37;;;10.30;;
4274;SDS011;2151;50.988;11.068;2022-07-30T06:10:20;131.00;;;10.33;;
4274;SDS011;2151;50.988;11.068;2022-07-30T06:12:47;133.10;;;10.53;;
4274;SDS011;2151;50.988;11.068;2022-07-30T06:15:13;131.70;;;10.07;;
4274;SDS011;2151;50.988;11.068;2022-07-30T06:17:41;132.80;;;11.70;;
4274;SDS011;2151;50.988;11.068;2022-07-30T06:20:08;131.60;;;10.90;;
4274;SDS011;2151;50.988;11.068;2022-07-30T06:22:35;130.17;;;10.53;;
4274;SDS011;2151;50.988;11.068;2022-07-30T06:25:01;133.57;;;11.77;;
4274;SDS011;2151;50.988;11.068;2022-07-30T06:27:28;131.23;;;11.63;;
4274;SDS011;2151;50.988;11.068;2022-07-30T06:30:07;132.47;;;12.33;;
4274;SDS011;2151;50.988;11.068;2022-07-30T06:32:34;131.27;;;12.90;;
4274;SDS011;2151;50.988;11.068;2022-07-30T06:35:01;132.40;;;11.77;;
4274;SDS011;2151;50.988;11.068;2022-07-30T06:37:30;133.93;;;10.87;;
4274;SDS011;2151;50.988;11.068;2022-07-30T06:40:16;133.73;;;10.93;;
4274;SDS011;2151;50.988;11.068;2022-07-30T06:42:43;128.50;;;9.50;;
4274;SDS011;2151;50.988;11.068;2022-07-30T06:45:09;129.07;;;10.30;;
4274;SDS011;2151;50.988;11.068;2022-07-30T06:47:36;135.60;;;11.50;;
4274;SDS011;2151;50.988;11.068;2022-07-30T06:50:02;130.37;;;12.83;;
4274;SDS011;2151;50.988;11.068;2022-07-30T06:52:29;141.03;;;10.97;;
4274;SDS011;2151;50.988;11.068;2022-07-30T06:54:55;129.70;;;10.87;;
4274;SDS011;2151;50.988;11.068;2022-07-30T06:57:22;132.57;;;11.40;;
4274;SDS011;2151;50.988;11.068;2022-07-30T06:59:49;131.97;;;12.80;;
4274;SDS011;2151;50.988;11.068;2022-07-30T07:02:22;130.63;;;9.87;;
4274;SDS011;2151;50.988;11.068;2022-07-30T07:04:49;127.50;;;10.00;;
4274;SDS011;2151;50.988;11.068;2022-07-30T07:07:15;129.73;;;9.80;;
4274;SDS011;2151;50.988;11.068;2022-07-30T07:10:04;128.07;;;10.10;;
4274;SDS011;2151;50.988;11.068;2022-07-30T07:12:30;131.97;;;10.40;;
4274;SDS011;2151;50.988;11.068;2022-07-30T07:14:58;130.63;;;10.30;;
4274;SDS011;2151;50.988;11.068;2022-07-30T07:17:24;129.73;;;10.57;;
4274;SDS011;2151;50.988;11.068;2022-07-30T07:19:50;128.70;;;9.80;;
4274;SDS011;2151;50.988;11.068;2022-07-30T07:22:26;129.67;;;10.13;;
4274;SDS011;2151;50.988;11.068;2022-07-30T07:24:53;132.13;;;10.43;;
4274;SDS011;2151;50.988;11.068;2022-07-30T07:27:20;127.70;;;10.40;;
4274;SDS011;2151;50.988;11.068;2022-07-30T07:29:46;131.53;;;12.63;;
4274;SDS011;2151;50.988;11.068;2022-07-30T07:32:31;127.40;;;12.70;;
4274;SDS011;2151;50.988;11.068;2022-07-30T07:34:58;130.10;;;12.80;;
4274;SDS011;2151;50.988;11.068;2022-07-30T07:37:24;127.37;;;10.23;;
4274;SDS011;2151;50.988;11.068;2022-07-30T07:39:51;126.37;;;10.00;;
4274;SDS011;2151;50.988;11.068;2022-07-30T07:42:17;131.50;;;10.03;;
4274;SDS011;2151;50.988;11.068;2022-07-30T07:44:44;127.20;;;8.87;;
4274;SDS011;2151;50.988;11.068;2022-07-30T07:47:10;125.93;;;8.93;;
4274;SDS011;2151;50.988;11.068;2022-07-30T07:49:37;125.90;;;8.37;;
4274;SDS011;2151;50.988;11.068;2022-07-30T07:52:03;129.10;;;9.40;;
4274;SDS011;2151;50.988;11.068;2022-07-30T07:54:29;124.77;;;8.50;;
4274;SDS011;2151;50.988;11.068;2022-07-30T07:56:56;125.87;;;8.93;;
4274;SDS011;2151;50.988;11.068;2022-07-30T07:59:23;124.57;;;8.80;;
4274;SDS011;2151;50.988;11.068;2022-07-30T08:02:05;124.63;;;9.40;;
4274;SDS011;2151;50.988;11.068;2022-07-30T08:04:33;124.80;;;8.80;;
4274;SDS011;2151;50.988;11.068;2022-07-30T08:06:59;128.90;;;9.40;;
4274;SDS011;2151;50.988;11.068;2022-07-30T08:09:26;124.90;;;8.67;;
4274;SDS011;2151;50.988;11.068;2022-07-30T08:12:09;126.77;;;8.90;;
4274;SDS011;2151;50.988;11.068;2022-07-30T08:14:35;126.47;;;9.20;;
4274;SDS011;2151;50.988;11.068;2022-07-30T08:17:02;128.60;;;12.00;;
4274;SDS011;2151;50.988;11.068;2022-07-30T08:19:28;128.07;;;14.73;;
4274;SDS011;2151;50.988;11.068;2022-07-30T08:21:55;125.33;;;10.30;;
4274;SDS011;2151;50.988;11.068;2022-07-30T08:24:24;125.30;;;9.40;;
4274;SDS011;2151;50.988;11.068;2022-07-30T08:26:51;126.27;;;9.13;;
4274;SDS011;2151;50.988;11.068;2022-07-30T08:29:17;126.47;;;8.70;;
4274;SDS011;2151;50.988;11.068;2022-07-30T08:31:44;123.40;;;8.50;;
4274;SDS011;2151;50.988;11.068;2022-07-30T08:34:10;121.27;;;7.47;;
4274;SDS011;2151;50.988;11.068;2022-07-30T08:36:38;125.17;;;8.50;;
4274;SDS011;2151;50.988;11.068;2022-07-30T08:39:04;123.30;;;7.83;;
4274;SDS011;2151;50.988;11.068;2022-07-30T08:41:31;123.43;;;8.90;;
4274;SDS011;2151;50.988;11.068;2022-07-30T08:43:58;121.20;;;8.47;;
4274;SDS011;2151;50.988;11.068;2022-07-30T08:46:26;123.60;;;9.63;;
4274;SDS011;2151;50.988;11.068;2022-07-30T08:48:54;121.80;;;8.57;;
4274;SDS011;2151;50.988;11.068;2022-07-30T08:51:21;122.40;;;8.87;;
4274;SDS011;2151;50.988;11.068;2022-07-30T08:53:48;123.57;;;8.63;;
4274;SDS011;2151;50.988;11.068;2022-07-30T08:56:14;125.13;;;8.80;;
4274;SDS011;2151;50.988;11.068;2022-07-30T08:58:41;120.30;;;7.67;;
4274;SDS011;2151;50.988;11.068;2022-07-30T09:01:07;124.17;;;10.20;;
4274;SDS011;2151;50.988;11.068;2022-07-30T09:03:35;123.10;;;10.27;;
4274;SDS011;2151;50.988;11.068;2022-07-30T09:06:09;121.37;;;7.83;;
4274;SDS011;2151;50.988;11.068;2022-07-30T09:08:35;118.87;;;7.43;;
4274;SDS011;2151;50.988;11.068;2022-07-30T09:11:02;120.17;;;7.63;;
4274;SDS011;2151;50.988;11.068;2022-07-30T09:13:29;119.90;;;7.00;;
4274;SDS011;2151;50.988;11.068;2022-07-30T09:15:56;124.60;;;11.10;;
4274;SDS011;2151;50.988;11.068;2022-07-30T09:18:27;124.13;;;12.77;;
4274;SDS011;2151;50.988;11.068;2022-07-30T09:20:54;120.20;;;7.83;;
4274;SDS011;2151;50.988;11.068;2022-07-30T09:23:21;120.30;;;8.30;;
4274;SDS011;2151;50.988;11.068;2022-07-30T09:25:47;119.77;;;7.87;;
4274;SDS011;2151;50.988;11.068;2022-07-30T09:28:14;121.47;;;7.80;;
4274;SDS011;2151;50.988;11.068;2022-07-30T09:33:09;120.00;;;8.00;;
4274;SDS011;2151;50.988;11.068;2022-07-30T09:35:38;130.13;;;22.03;;
4274;SDS011;2151;50.988;11.068;2022-07-30T09:38:04;119.40;;;8.10;;
4274;SDS011;2151;50.988;11.068;2022-07-30T09:40:32;120.87;;;9.73;;
4274;SDS011;2151;50.988;11.068;2022-07-30T09:43:06;119.10;;;7.13;;
4274;SDS011;2151;50.988;11.068;2022-07-30T09:45:32;121.83;;;8.87;;
4274;SDS011;2151;50.988;11.068;2022-07-30T09:48:00;124.50;;;9.60;;
4274;SDS011;2151;50.988;11.068;2022-07-30T09:50:27;119.17;;;7.17;;
4274;SDS011;2151;50.988;11.068;2022-07-30T09:53:04;120.67;;;8.00;;
4274;SDS011;2151;50.988;11.068;2022-07-30T09:55:32;120.73;;;10.17;;
4274;SDS011;2151;50.988;11.068;2022-07-30T09:57:59;120.67;;;9.50;;
4274;SDS011;2151;50.988;11.068;2022-07-30T10:00:27;121.57;;;11.90;;
4274;SDS011;2151;50.988;11.068;2022-07-30T10:02:54;119.47;;;8.17;;
4274;SDS011;2151;50.988;11.068;2022-07-30T10:05:25;118.07;;;6.80;;
4274;SDS011;2151;50.988;11.068;2022-07-30T10:08:00;119.77;;;8.50;;
4274;SDS011;2151;50.988;11.068;2022-07-30T10:10:34;118.97;;;7.30;;
4274;SDS011;2151;50.988;11.068;2022-07-30T10:13:12;120.97;;;9.37;;
4274;SDS011;2151;50.988;11.068;2022-07-30T10:15:45;118.13;;;8.40;;
4274;SDS011;2151;50.988;11.068;2022-07-30T10:18:15;119.97;;;8.03;;
4274;SDS011;2151;50.988;11.068;2022-07-30T10:20:43;117.20;;;7.20;;
4274;SDS011;2151;50.988;11.068;2022-07-30T10:23:11;118.60;;;7.93;;
4274;SDS011;2151;50.988;11.068;2022-07-30T10:25:41;116.30;;;7.63;;
4274;SDS011;2151;50.988;11.068;2022-07-30T10:28:20;118.43;;;7.33;;
4274;SDS011;2151;50.988;11.068;2022-07-30T10:30:53;115.60;;;6.77;;
4274;SDS011;2151;50.988;11.068;2022-07-30T10:33:22;117.40;;;6.80;;
4274;SDS011;2151;50.988;11.068;2022-07-30T10:36:05;115.57;;;7.50;;
4274;SDS011;2151;50.988;11.068;2022-07-30T10:38:36;115.33;;;7.07;;
4274;SDS011;2151;50.988;11.068;2022-07-30T10:46:08;116.87;;;6.97;;
4274;SDS011;2151;50.988;11.068;2022-07-30T10:48:48;116.03;;;6.17;;
4274;SDS011;2151;50.988;11.068;2022-07-30T10:51:16;115.80;;;6.60;;
4274;SDS011;2151;50.988;11.068;2022-07-30T10:53:50;116.70;;;7.17;;
4274;SDS011;2151;50.988;11.068;2022-07-30T10:56:18;116.17;;;6.67;;
4274;SDS011;2151;50.988;11.068;2022-07-30T11:01:24;115.63;;;6.33;;
4274;SDS011;2151;50.988;11.068;2022-07-30T11:06:46;115.23;;;6.63;;
4274;SDS011;2151;50.988;11.068;2022-07-30T11:09:56;115.80;;;6.87;;
4274;SDS011;2151;50.988;11.068;2022-07-30T11:12:07;115.33;;;6.67;;
4274;SDS011;2151;50.988;11.068;2022-07-30T11:17:16;114.57;;;6.23;;
4274;SDS011;2151;50.988;11.068;2022-07-30T11:22:38;116.33;;;6.00;;
4274;SDS011;2151;50.988;11.068;2022-07-30T11:25:11;116.23;;;6.30;;
4274;SDS011;2151;50.988;11.068;2022-07-30T11:31:00;120.60;;;6.27;;
4274;SDS011;2151;50.988;11.068;2022-07-30T11:33:36;118.17;;;7.47;;
4274;SDS011;2151;50.988;11.068;2022-07-30T11:36:05;116.90;;;6.83;;
4274;SDS011;2151;50.988;11.068;2022-07-30T11:38:51;117.67;;;6.80;;
4274;SDS011;2151;50.988;11.068;2022-07-30T11:41:19;116.87;;;6.60;;
4274;SDS011;2151;50.988;11.068;2022-07-30T11:43:47;116.83;;;6.50;;
4274;SDS011;2151;50.988;11.068;2022-07-30T11:46:17;117.10;;;6.40;;
4274;SDS011;2151;50.988;11.068;2022-07-30T11:48:59;124.30;;;7.43;;
4274;SDS011;2151;50.988;11.068;2022-07-30T11:51:34;120.47;;;7.40;;
4274;SDS011;2151;50.988;11.068;2022-07-30T11:54:05;120.23;;;8.53;;
4274;SDS011;2151;50.988;11.068;2022-07-30T11:56:33;120.33;;;8.37;;
4274;SDS011;2151;50.988;11.068;2022-07-30T11:59:00;119.80;;;8.70;;
4274;SDS011;2151;50.988;11.068;2022-07-30T12:01:29;119.80;;;7.80;;
4274;SDS011;2151;50.988;11.068;2022-07-30T12:03:56;122.23;;;7.40;;
4274;SDS011;2151;50.988;11.068;2022-07-30T12:06:22;120.57;;;9.50;;
4274;SDS011;2151;50.988;11.068;2022-07-30T12:08:49;118.87;;;7.70;;
4274;SDS011;2151;50.988;11.068;2022-07-30T12:11:23;117.57;;;8.03;;
4274;SDS011;2151;50.988;11.068;2022-07-30T12:13:56;123.93;;;8.70;;
4274;SDS011;2151;50.988;11.068;2022-07-30T12:16:25;119.27;;;8.20;;
4274;SDS011;2151;50.988;11.068;2022-07-30T12:18:52;119.60;;;8.73;;
4274;SDS011;2151;50.988;11.068;2022-07-30T12:21:19;122.13;;;8.67;;
4274;SDS011;2151;50.988;11.068;2022-07-30T12:24:04;118.57;;;7.63;;
4274;SDS011;2151;50.988;11.068;2022-07-30T12:26:35;118.47;;;8.67;;
4274;SDS011;2151;50.988;11.068;2022-07-30T12:29:02;118.00;;;8.23;;
4274;SDS011;2151;50.988;11.068;2022-07-30T12:31:30;119.93;;;7.37;;
4274;SDS011;2151;50.988;11.068;2022-07-30T12:33:58;119.10;;;7.30;;
4274;SDS011;2151;50.988;11.068;2022-07-30T12:36:29;119.03;;;6.90;;
4274;SDS011;2151;50.988;11.068;2022-07-30T12:38:57;117.10;;;6.70;;
4274;SDS011;2151;50.988;11.068;2022-07-30T12:41:43;116.20;;;6.60;;
4274;SDS011;2151;50.988;11.068;2022-07-30T12:44:10;115.37;;;5.83;;
4274;SDS011;2151;50.988;11.068;2022-07-30T12:46:39;116.90;;;7.30;;
4274;SDS011;2151;50.988;11.068;2022-07-30T12:49:06;116.50;;;6.80;;
4274;SDS011;2151;50.988;11.068;2022-07-30T12:51:51;117.00;;;7.57;;
4274;SDS011;2151;50.988;11.068;2022-07-30T12:54:25;116.53;;;6.20;;
4274;SDS011;2151;50.988;11.068;2022-07-30T12:56:57;116.63;;;7.03;;
4274;SDS011;2151;50.988;11.068;2022-07-30T12:59:25;115.67;;;7.03;;
4274;SDS011;2151;50.988;11.068;2022-07-30T13:01:51;117.90;;;8.70;;
4274;SDS011;2151;50.988;11.068;2022-07-30T13:04:18;115.60;;;6.17;;
4274;SDS011;2151;50.988;11.068;2022-07-30T13:09:30;113.47;;;6.03;;
4274;SDS011;2151;50.988;11.068;2022-07-30T13:11:57;115.83;;;6.30;;
4274;SDS011;2151;50.988;11.068;2022-07-30T13:14:23;116.00;;;6.10;;
4274;SDS011;2151;50.988;11.068;2022-07-30T13:16:52;113.87;;;5.77;;
4274;SDS011;2151;50.988;11.068;2022-07-30T13:19:18;114.87;;;6.30;;
4274;SDS011;2151;50.988;11.068;2022-07-30T13:21:45;115.07;;;6.40;;
4274;SDS011;2151;50.988;11.068;2022-07-30T13:24:15;115.47;;;6.20;;
4274;SDS011;2151;50.988;11.068;2022-07-30T13:26:43;115.97;;;6.80;;
4274;SDS011;2151;50.988;11.068;2022-07-30T13:29:10;116.60;;;6.97;;
4274;SDS011;2151;50.988;11.068;2022-07-30T13:31:39;115.87;;;7.00;;
4274;SDS011;2151;50.988;11.068;2022-07-30T13:34:08;116.93;;;6.30;;
4274;SDS011;2151;50.988;11.068;2022-07-30T13:36:35;115.70;;;6.20;;
4274;SDS011;2151;50.988;11.068;2022-07-30T13:39:01;115.77;;;6.60;;
4274;SDS011;2151;50.988;11.068;2022-07-30T13:41:28;117.00;;;6.20;;
4274;SDS011;2151;50.988;11.068;2022-07-30T13:43:55;115.70;;;6.20;;
4274;SDS011;2151;50.988;11.068;2022-07-30T13:46:21;115.70;;;6.00;;
4274;SDS011;2151;50.988;11.068;2022-07-30T13:48:47;116.50;;;6.30;;
4274;SDS011;2151;50.988;11.068;2022-07-30T13:51:15;116.60;;;6.60;;
4274;SDS011;2151;50.988;11.068;2022-07-30T13:53:41;117.17;;;6.13;;
4274;SDS011;2151;50.988;11.068;2022-07-30T13:56:08;115.80;;;6.50;;
4274;SDS011;2151;50.988;11.068;2022-07-30T13:58:38;118.13;;;7.20;;
4274;SDS011;2151;50.988;11.068;2022-07-30T14:01:05;115.90;;;6.50;;
4274;SDS011;2151;50.988;11.068;2022-07-30T14:03:32;115.07;;;6.83;;
4274;SDS011;2151;50.988;11.068;2022-07-30T14:05:59;117.27;;;6.90;;
4274;SDS011;2151;50.988;11.068;2022-07-30T14:08:36;114.40;;;5.87;;
4274;SDS011;2151;50.988;11.068;2022-07-30T14:11:02;115.30;;;6.00;;
4274;SDS011;2151;50.988;11.068;2022-07-30T14:13:29;114.67;;;6.03;;
4274;SDS011;2151;50.988;11.068;2022-07-30T14:15:55;116.63;;;5.67;;
4274;SDS011;2151;50.988;11.068;2022-07-30T14:18:21;116.17;;;6.47;;
4274;SDS011;2151;50.988;11.068;2022-07-30T14:20:48;114.47;;;5.80;;
4274;SDS011;2151;50.988;11.068;2022-07-30T14:23:18;115.87;;;6.33;;
4274;SDS011;2151;50.988;11.068;2022-07-30T14:25:44;113.87;;;5.90;;
4274;SDS011;2151;50.988;11.068;2022-07-30T14:28:11;115.37;;;6.50;;
4274;SDS011;2151;50.988;11.068;2022-07-30T14:30:37;115.20;;;7.27;;
4274;SDS011;2151;50.988;11.068;2022-07-30T14:33:04;115.13;;;6.73;;
4274;SDS011;2151;50.988;11.068;2022-07-30T14:35:30;113.77;;;6.03;;
4274;SDS011;2151;50.988;11.068;2022-07-30T14:37:57;114.57;;;6.37;;
4274;SDS011;2151;50.988;11.068;2022-07-30T14:40:23;115.27;;;6.67;;
4274;SDS011;2151;50.988;11.068;2022-07-30T14:42:49;114.50;;;7.07;;
4274;SDS011;2151;50.988;11.068;2022-07-30T14:45:16;114.20;;;6.60;;
4274;SDS011;2151;50.988;11.068;2022-07-30T14:47:43;115.40;;;6.20;;
4274;SDS011;2151;50.988;11.068;2022-07-30T14:50:09;118.13;;;7.07;;
4274;SDS011;2151;50.988;11.068;2022-07-30T14:52:36;114.13;;;6.57;;
4274;SDS011;2151;50.988;11.068;2022-07-30T14:55:04;116.47;;;6.50;;
4274;SDS011;2151;50.988;11.068;2022-07-30T14:57:32;115.20;;;6.73;;
4274;SDS011;2151;50.988;11.068;2022-07-30T14:59:58;113.67;;;6.00;;
4274;SDS011;2151;50.988;11.068;2022-07-30T15:02:25;115.67;;;6.83;;
4274;SDS011;2151;50.988;11.068;2022-07-30T15:04:53;115.17;;;6.20;;
4274;SDS011;2151;50.988;11.068;2022-07-30T15:07:19;116.10;;;6.10;;
4274;SDS011;2151;50.988;11.068;2022-07-30T15:09:46;115.07;;;5.90;;